< < Back
Terminal Aerodrome Forecast


Current Version              Previous Versions:   1  2  3  4  5  6  7  8  9  

Terminal Aerodrome Forecast

635
FTUS44 KMOB 231737
TAFPNS
TAF
KPNS 231737Z 2318/2418 36004KT P6SM VCTS FEW030CB
      TEMPO 2319/2323 5SM TSRA BKN030CB
     FM240300 00000KT P6SM SCT250
     FM241500 07006KT P6SM FEW250=

Latest METAR

586
SAUS70 KWBC 241000 RRK
MTRPNS
METAR KPNS 240953Z AUTO 09005KT 10SM CLR 27/24 A3012 RMK AO2 SLP199
T02670244


USA.gov is the U.S. government's official web portal to all federal, state and local government web resources and services.